createdAt,value
2022-11-20T00:00:57.394Z,97546.53
2022-11-20T00:03:25.344Z,97551.41
2022-11-20T00:05:53.295Z,97555.50
2022-11-20T00:08:21.449Z,97550.72
2022-11-20T00:10:50.652Z,97553.97
2022-11-20T00:13:18.449Z,97563.97
2022-11-20T00:15:46.316Z,97549.44
2022-11-20T00:18:14.199Z,97558.03
2022-11-20T00:20:42.065Z,97564.63
2022-11-20T00:23:09.914Z,97563.69
2022-11-20T00:25:37.715Z,97558.59
2022-11-20T00:28:07.035Z,97558.81
2022-11-20T00:30:34.919Z,97560.22
2022-11-20T00:33:02.831Z,97554.75
2022-11-20T00:35:30.659Z,97552.19
2022-11-20T00:37:58.432Z,97559.97
2022-11-20T00:40:26.299Z,97551.50
2022-11-20T00:42:54.148Z,97543.16
2022-11-20T00:45:23.418Z,97552.56
2022-11-20T00:47:51.346Z,97544.91
2022-11-20T00:50:19.254Z,97550.38
2022-11-20T00:52:47.164Z,97556.06
2022-11-20T00:55:15.434Z,97563.97
2022-11-20T00:57:43.267Z,97561.88
2022-11-20T01:00:11.853Z,97559.56
2022-11-20T01:02:41.014Z,97567.72
2022-11-20T01:05:09.411Z,97569.66
2022-11-20T01:07:37.418Z,97575.56
2022-11-20T01:10:05.910Z,97571.50
2022-11-20T01:12:33.708Z,97571.28
2022-11-20T01:15:01.845Z,97564.19
2022-11-20T01:17:29.699Z,97566.03
2022-11-20T01:19:58.915Z,97571.03
2022-11-20T01:22:26.818Z,97576.16
2022-11-20T01:24:54.640Z,97574.75
2022-11-20T01:27:22.793Z,97575.22
2022-11-20T01:29:50.711Z,97576.97
2022-11-20T01:32:18.859Z,97580.19
2022-11-20T01:34:47.139Z,97577.75
2022-11-20T01:37:16.365Z,97577.53
2022-11-20T01:39:44.244Z,97577.66
2022-11-20T01:42:29.596Z,97579.16
2022-11-20T01:44:59.430Z,97571.97
2022-11-20T01:47:33.864Z,97575.00
2022-11-20T01:50:07.416Z,97573.72
2022-11-20T01:52:40.343Z,97579.06
2022-11-20T01:55:11.344Z,97567.34
2022-11-20T01:57:40.754Z,97568.16
2022-11-20T02:00:12.779Z,97573.94
2022-11-20T02:02:43.004Z,97569.75
2022-11-20T02:05:18.895Z,97567.91
2022-11-20T02:07:49.360Z,97561.63
2022-11-20T02:10:17.711Z,97553.72
2022-11-20T02:13:03.068Z,97565.22
2022-11-20T02:15:30.983Z,97552.91
2022-11-20T02:17:59.182Z,97565.22
2022-11-20T02:20:27.974Z,97568.47
2022-11-20T02:23:04.892Z,97560.34
2022-11-20T02:25:37.313Z,97564.88
2022-11-20T02:28:07.013Z,97561.75
2022-11-20T02:30:34.912Z,97572.78
2022-11-20T02:33:02.715Z,97560.47
2022-11-20T02:35:45.715Z,97563.97
2022-11-20T02:38:13.896Z,97559.44
2022-11-20T02:40:43.155Z,97563.25
2022-11-20T02:43:11.265Z,97568.16
2022-11-20T02:45:39.180Z,97570.63
2022-11-20T02:48:08.668Z,97568.53
2022-11-20T02:50:40.190Z,97569.09
2022-11-20T02:53:08.608Z,97565.38
2022-11-20T02:55:36.560Z,97567.81
2022-11-20T02:58:05.756Z,97567.00
2022-11-20T03:00:34.564Z,97574.53
2022-11-20T03:03:02.444Z,97561.19
2022-11-20T03:05:30.267Z,97568.63
2022-11-20T03:07:58.075Z,97565.72
2022-11-20T03:10:25.943Z,97549.34
2022-11-20T03:12:56.349Z,97557.47
2022-11-20T03:15:26.228Z,97563.84
2022-11-20T03:17:56.079Z,97562.34
2022-11-20T03:20:24.689Z,97557.25
2022-11-20T03:22:52.484Z,97559.09
2022-11-20T03:25:20.375Z,97552.94
2022-11-20T03:27:48.211Z,97552.94
2022-11-20T03:30:16.621Z,97550.63
2022-11-20T03:32:46.127Z,97554.56
2022-11-20T03:35:14.236Z,97553.75
2022-11-20T03:37:42.292Z,97544.94
2022-11-20T03:40:11.312Z,97550.63
2022-11-20T03:42:48.167Z,97546.31
2022-11-20T03:45:16.708Z,97554.09
2022-11-20T03:47:46.441Z,97561.06
2022-11-20T03:50:15.497Z,97552.00
2022-11-20T03:52:43.743Z,97546.09
2022-11-20T03:55:11.765Z,97547.94
2022-11-20T03:57:39.640Z,97544.34
2022-11-20T04:00:08.691Z,97544.56
2022-11-20T04:02:36.629Z,97544.09
2022-11-20T04:05:06.402Z,97545.84
2022-11-20T04:07:36.592Z,97547.47
2022-11-20T04:10:04.948Z,97553.06
2022-11-20T04:12:34.941Z,97545.63
2022-11-20T04:15:03.036Z,97550.97
2022-11-20T04:17:30.892Z,97543.53
2022-11-20T04:19:58.780Z,97534.59
2022-11-20T04:22:28.132Z,97547.00
2022-11-20T04:24:55.983Z,97542.03
2022-11-20T04:27:23.869Z,97542.03
2022-11-20T04:29:51.700Z,97540.63
2022-11-20T04:32:19.632Z,97541.91
2022-11-20T04:34:47.647Z,97534.25
2022-11-20T04:37:15.418Z,97536.09
2022-11-20T04:39:44.830Z,97535.97
2022-11-20T04:42:30.788Z,97544.56
2022-11-20T04:44:59.205Z,97542.72
2022-11-20T04:47:27.302Z,97533.66
2022-11-20T04:49:55.267Z,97532.72
2022-11-20T04:52:23.115Z,97532.16
2022-11-20T04:54:53.883Z,97535.50
2022-11-20T04:57:22.156Z,97539.81
2022-11-20T04:59:50.043Z,97545.38
2022-11-20T05:02:18.074Z,97540.50
2022-11-20T05:04:45.912Z,97544.47
2022-11-20T05:07:13.892Z,97546.66
2022-11-20T05:09:41.758Z,97534.69
2022-11-20T05:12:11.189Z,97540.50
2022-11-20T05:14:39.086Z,97530.53
2022-11-20T05:17:06.985Z,97530.75
2022-11-20T05:19:34.866Z,97532.63
2022-11-20T05:22:02.751Z,97535.53
2022-11-20T05:24:30.584Z,97540.63
2022-11-20T05:26:58.446Z,97541.44
2022-11-20T05:29:27.652Z,97549.00
2022-11-20T05:31:55.584Z,97542.25
2022-11-20T05:34:23.524Z,97548.19
2022-11-20T05:36:51.386Z,97542.03
2022-11-20T05:39:19.537Z,97540.97
2022-11-20T05:42:07.592Z,97542.94
2022-11-20T05:44:36.855Z,97536.91
2022-11-20T05:47:04.753Z,97537.50
2022-11-20T05:49:32.615Z,97536.91
2022-11-20T05:52:00.722Z,97536.44
2022-11-20T05:54:28.612Z,97535.63
2022-11-20T05:56:56.472Z,97539.13
2022-11-20T05:59:24.419Z,97528.31
2022-11-20T06:01:53.710Z,97529.25
2022-11-20T06:04:21.845Z,97527.63
2022-11-20T06:06:50.199Z,97528.44
2022-11-20T06:09:18.282Z,97526.56
2022-11-20T06:11:46.484Z,97535.63
2022-11-20T06:14:14.449Z,97527.50
2022-11-20T06:16:42.657Z,97524.47
2022-11-20T06:19:11.943Z,97521.47
2022-11-20T06:21:39.843Z,97523.66
2022-11-20T06:24:08.460Z,97529.25
2022-11-20T06:26:36.383Z,97520.88
2022-11-20T06:29:04.745Z,97523.31
2022-11-20T06:31:38.621Z,97519.84
2022-11-20T06:34:07.197Z,97526.81
2022-11-20T06:36:37.115Z,97519.59
2022-11-20T06:39:05.367Z,97522.03
2022-11-20T06:41:33.247Z,97523.78
2022-11-20T06:44:01.126Z,97529.00
2022-11-20T06:46:29.195Z,97530.28
2022-11-20T06:48:57.093Z,97521.69
2022-11-20T06:51:24.961Z,97536.22
2022-11-20T06:53:55.101Z,97531.69
2022-11-20T06:56:23.157Z,97535.41
2022-11-20T06:58:51.029Z,97527.84
2022-11-20T07:01:19.346Z,97534.00
2022-11-20T07:03:52.883Z,97527.16
2022-11-20T07:06:22.032Z,97524.25
2022-11-20T07:08:52.185Z,97535.41
2022-11-20T07:11:21.608Z,97537.59
2022-11-20T07:13:49.471Z,97535.75
2022-11-20T07:16:17.864Z,97540.84
2022-11-20T07:18:50.201Z,97540.63
2022-11-20T07:21:19.321Z,97549.44
2022-11-20T07:23:47.203Z,97542.25
2022-11-20T07:26:15.139Z,97541.31
2022-11-20T07:28:51.076Z,97545.59
2022-11-20T07:31:19.806Z,97547.47
2022-11-20T07:33:48.036Z,97551.06
2022-11-20T07:36:15.965Z,97542.69
2022-11-20T07:38:43.839Z,97544.09
2022-11-20T07:41:11.785Z,97550.81
2022-11-20T07:43:41.410Z,97546.06
2022-11-20T07:46:11.142Z,97553.72
2022-11-20T07:48:40.164Z,97556.63
2022-11-20T07:51:11.568Z,97552.56
2022-11-20T07:53:39.556Z,97565.22
2022-11-20T07:56:10.609Z,97558.25
2022-11-20T07:58:38.449Z,97567.09
2022-11-20T08:01:08.783Z,97569.19
2022-11-20T08:03:39.468Z,97571.84
2022-11-20T08:06:08.188Z,97566.50
2022-11-20T08:08:42.490Z,97569.88
2022-11-20T08:11:42.997Z,97572.09
2022-11-20T08:14:13.898Z,97564.88
2022-11-20T08:16:42.795Z,97566.16
2022-11-20T08:19:16.633Z,97571.16
2022-11-20T08:21:46.986Z,97562.91
2022-11-20T08:24:15.043Z,97569.31
2022-11-20T08:26:43.518Z,97571.63
2022-11-20T08:29:11.420Z,97580.47
2022-11-20T08:31:39.478Z,97572.44
2022-11-20T08:34:09.429Z,97567.78
2022-11-20T08:36:39.362Z,97573.84
2022-11-20T08:39:07.130Z,97577.09
2022-11-20T08:41:35.041Z,97572.78
2022-11-20T08:44:04.971Z,97577.19
2022-11-20T08:46:36.464Z,97571.28
2022-11-20T08:49:06.982Z,97576.38
2022-11-20T08:51:35.385Z,97580.91
2022-11-20T08:54:05.589Z,97584.16
2022-11-20T08:56:34.122Z,97585.09
2022-11-20T08:59:20.583Z,97581.72
2022-11-20T09:01:49.863Z,97576.94
2022-11-20T09:04:17.708Z,97584.16
2022-11-20T09:06:45.498Z,97586.00
2022-11-20T09:09:14.841Z,97577.66
2022-11-20T09:11:42.658Z,97580.56
2022-11-20T09:14:11.976Z,97585.91
2022-11-20T09:16:39.998Z,97587.53
2022-11-20T09:19:34.530Z,97585.91
2022-11-20T09:22:02.027Z,97587.75
2022-11-20T09:24:39.913Z,97591.25
2022-11-20T09:27:07.775Z,97600.09
2022-11-20T09:29:35.740Z,97596.59
2022-11-20T09:32:07.148Z,97593.09
2022-11-20T09:34:35.349Z,97594.28
2022-11-20T09:37:06.334Z,97593.22
2022-11-20T09:39:39.997Z,97596.47
2022-11-20T09:42:28.074Z,97601.00
2022-11-20T09:45:20.916Z,97598.69
2022-11-20T09:48:06.564Z,97600.66
2022-11-20T09:50:38.722Z,97596.09
2022-11-20T09:53:15.981Z,97607.03
2022-11-20T09:55:45.399Z,97606.53
2022-11-20T09:58:18.559Z,97604.22
2022-11-20T10:00:46.751Z,97615.94
2022-11-20T10:03:20.324Z,97604.97
2022-11-20T10:05:52.549Z,97606.59
2022-11-20T10:08:25.325Z,97615.28
2022-11-20T10:11:02.539Z,97615.06
2022-11-20T10:13:42.393Z,97607.38
2022-11-20T10:16:23.498Z,97607.72
2022-11-20T10:19:07.609Z,97601.88
2022-11-20T10:21:46.006Z,97606.75
2022-11-20T10:24:54.455Z,97609.19
2022-11-20T10:27:42.898Z,97610.91
2022-11-20T10:30:13.564Z,97611.41
2022-11-20T10:32:44.604Z,97612.91
2022-11-20T10:35:23.620Z,97608.97
2022-11-20T10:37:57.477Z,97613.34
2022-11-20T10:40:32.027Z,97612.53
2022-11-20T10:43:10.716Z,97608.25
2022-11-20T10:45:48.964Z,97610.59
2022-11-20T10:48:25.477Z,97613.41
2022-11-20T10:51:05.435Z,97617.81
2022-11-20T10:53:54.361Z,97620.00
2022-11-20T10:56:30.634Z,97619.75
2022-11-20T11:01:52.148Z,97610.38
2022-11-20T11:04:32.178Z,97620.91
2022-11-20T11:07:09.014Z,97609.72
2022-11-20T11:09:41.926Z,97611.34
2022-11-20T11:12:10.876Z,97615.16
2022-11-20T11:14:49.624Z,97604.03
2022-11-20T11:17:30.636Z,97601.03
2022-11-20T11:20:08.386Z,97601.03
2022-11-20T11:22:45.887Z,97598.44
2022-11-20T11:25:23.122Z,97593.91
2022-11-20T11:27:52.421Z,97589.69
2022-11-20T11:30:21.896Z,97579.06
2022-11-20T11:32:51.553Z,97579.84
2022-11-20T11:35:26.437Z,97576.31
2022-11-20T11:37:56.820Z,97571.81
2022-11-20T11:40:28.094Z,97578.81
2022-11-20T11:42:59.980Z,97572.63
2022-11-20T11:45:27.282Z,97566.22
2022-11-20T11:48:00.365Z,97570.63
2022-11-20T11:50:29.801Z,97572.34
2022-11-20T11:53:11.072Z,97567.22
2022-11-20T11:55:44.598Z,97565.22
2022-11-20T11:58:27.904Z,97549.59
2022-11-20T12:01:01.282Z,97551.41
2022-11-20T12:03:37.283Z,97536.91
2022-11-20T12:06:12.759Z,97541.44
2022-11-20T12:08:49.695Z,97538.66
2022-11-20T12:11:33.193Z,97540.03
2022-11-20T12:14:06.485Z,97538.25
2022-11-20T12:16:38.660Z,97533.09
2022-11-20T12:19:12.383Z,97541.16
2022-11-20T12:21:47.506Z,97530.59
2022-11-20T12:24:39.356Z,97535.63
2022-11-20T12:27:40.220Z,97530.22
2022-11-20T12:30:11.815Z,97529.09
2022-11-20T12:32:58.630Z,97531.72
2022-11-20T12:35:46.749Z,97516.94
2022-11-20T12:38:42.888Z,97522.16
2022-11-20T12:41:38.710Z,97518.19
2022-11-20T12:44:37.522Z,97511.56
2022-11-20T12:47:18.633Z,97511.72
2022-11-20T12:49:55.832Z,97513.75
2022-11-20T12:52:41.462Z,97521.25
2022-11-20T12:55:23.415Z,97517.16
2022-11-20T12:58:00.306Z,97517.91
2022-11-20T13:00:28.515Z,97510.41
2022-11-20T13:03:27.051Z,97516.44
2022-11-20T13:06:02.303Z,97512.56
2022-11-20T13:08:36.150Z,97513.75
2022-11-20T13:11:13.678Z,97514.41
2022-11-20T13:13:49.002Z,97502.16
2022-11-20T13:16:25.941Z,97512.41
2022-11-20T13:18:54.120Z,97511.13
2022-11-20T13:21:36.661Z,97515.16
2022-11-20T13:24:08.642Z,97502.97
2022-11-20T13:26:36.968Z,97518.41
2022-11-20T13:29:11.547Z,97507.34
2022-11-20T13:31:53.584Z,97508.59
2022-11-20T13:34:27.577Z,97510.84
2022-11-20T13:36:57.242Z,97505.75
2022-11-20T13:39:30.480Z,97512.06
2022-11-20T13:42:03.098Z,97501.78
2022-11-20T13:44:36.681Z,97510.56
2022-11-20T13:47:04.701Z,97508.00
2022-11-20T13:49:35.198Z,97495.63
2022-11-20T13:52:31.402Z,97491.03
2022-11-20T13:55:13.609Z,97484.66
2022-11-20T13:58:23.285Z,97491.66
2022-11-20T14:00:59.298Z,97484.41
2022-11-20T14:03:59.093Z,97468.25
2022-11-20T14:06:28.557Z,97479.97
2022-11-20T14:09:02.716Z,97487.16
2022-11-20T14:11:33.252Z,97478.88
2022-11-20T14:14:04.063Z,97484.63
2022-11-20T14:16:33.981Z,97488.34
2022-11-20T14:19:28.547Z,97484.81
2022-11-20T14:22:12.049Z,97492.84
2022-11-20T14:24:40.192Z,97487.50
2022-11-20T14:27:15.215Z,97478.69
2022-11-20T14:29:44.593Z,97489.09
2022-11-20T14:32:13.047Z,97485.69
2022-11-20T14:34:44.034Z,97480.44
2022-11-20T14:37:17.037Z,97483.19
2022-11-20T14:39:57.544Z,97485.25
2022-11-20T14:42:29.135Z,97485.19
2022-11-20T14:44:59.406Z,97484.38
2022-11-20T14:47:29.572Z,97480.72
2022-11-20T14:49:59.327Z,97480.72
2022-11-20T14:52:28.926Z,97473.16
2022-11-20T14:55:00.610Z,97469.50
2022-11-20T14:57:32.021Z,97468.31
2022-11-20T15:00:22.384Z,97462.56
2022-11-20T15:02:51.556Z,97463.56
2022-11-20T15:05:21.824Z,97454.69
2022-11-20T15:07:52.172Z,97440.19
2022-11-20T15:10:25.676Z,97445.47
2022-11-20T15:12:57.910Z,97448.13
2022-11-20T15:15:32.482Z,97445.56
2022-11-20T15:18:01.046Z,97443.88
2022-11-20T15:20:33.420Z,97441.09
2022-11-20T15:23:01.649Z,97427.16
2022-11-20T15:25:30.542Z,97433.50
2022-11-20T15:28:07.261Z,97444.69
2022-11-20T15:30:42.628Z,97448.28
2022-11-20T15:33:14.031Z,97444.31
2022-11-20T15:35:42.177Z,97447.63
2022-11-20T15:38:24.158Z,97444.72
2022-11-20T15:40:53.598Z,97451.78
2022-11-20T15:43:28.202Z,97442.34
2022-11-20T15:46:02.691Z,97437.50
2022-11-20T15:48:48.486Z,97440.97
2022-11-20T15:51:27.169Z,97435.22
2022-11-20T15:53:56.783Z,97417.78
2022-11-20T15:59:15.766Z,97431.47
2022-11-20T16:01:43.962Z,97427.66
2022-11-20T16:04:14.265Z,97427.97
2022-11-20T16:06:42.451Z,97426.50
2022-11-20T16:09:10.755Z,97420.09
2022-11-20T16:11:39.514Z,97427.78
2022-11-20T16:14:29.249Z,97431.84
2022-11-20T16:16:58.643Z,97429.56
2022-11-20T16:19:28.597Z,97429.66
2022-11-20T16:22:02.319Z,97429.19
2022-11-20T16:24:30.986Z,97423.66
2022-11-20T16:26:59.373Z,97420.16
2022-11-20T16:29:27.504Z,97416.13
2022-11-20T16:31:55.563Z,97411.66
2022-11-20T16:34:25.767Z,97412.41
2022-11-20T16:36:54.152Z,97422.03
2022-11-20T16:39:24.058Z,97408.59
2022-11-20T16:41:52.419Z,97412.41
2022-11-20T16:44:20.537Z,97412.06
2022-11-20T16:46:48.818Z,97402.44
2022-11-20T16:49:16.998Z,97398.75
2022-11-20T16:51:47.666Z,97407.06
2022-11-20T16:54:20.540Z,97405.69
2022-11-20T16:56:52.017Z,97412.47
2022-11-20T16:59:20.582Z,97408.50
2022-11-20T17:01:48.776Z,97407.13
2022-11-20T17:04:17.188Z,97396.44
2022-11-20T17:06:48.011Z,97388.97
2022-11-20T17:09:16.225Z,97384.19
2022-11-20T17:11:45.737Z,97390.53
2022-11-20T17:14:14.149Z,97382.66
2022-11-20T17:16:43.118Z,97387.03
2022-11-20T17:19:13.692Z,97381.38
2022-11-20T17:21:42.286Z,97373.66
2022-11-20T17:24:13.246Z,97371.97
2022-11-20T17:26:43.130Z,97373.41
2022-11-20T17:29:13.109Z,97378.13
2022-11-20T17:31:42.258Z,97377.41
2022-11-20T17:34:12.912Z,97376.75
2022-11-20T17:36:45.213Z,97371.72
2022-11-20T17:39:16.385Z,97368.00
2022-11-20T17:41:44.450Z,97369.88
2022-11-20T17:44:13.597Z,97363.78
2022-11-20T17:46:41.970Z,97360.06
2022-11-20T17:49:09.843Z,97361.59
2022-11-20T17:51:37.859Z,97359.16
2022-11-20T17:54:08.555Z,97353.50
2022-11-20T17:56:55.688Z,97355.09
2022-11-20T17:59:23.913Z,97346.03
2022-11-20T18:01:51.839Z,97345.28
2022-11-20T18:04:19.716Z,97335.31
2022-11-20T18:06:47.970Z,97332.09
2022-11-20T18:09:15.831Z,97332.09
2022-11-20T18:11:45.543Z,97333.06
2022-11-20T18:14:29.375Z,97333.53
2022-11-20T18:16:59.294Z,97328.75
2022-11-20T18:19:32.208Z,97325.59
2022-11-20T18:22:01.978Z,97314.25
2022-11-20T18:24:29.887Z,97319.84
2022-11-20T18:26:59.630Z,97324.13
2022-11-20T18:29:31.109Z,97315.63
2022-11-20T18:31:59.936Z,97317.25
2022-11-20T18:34:28.830Z,97318.06
2022-11-20T18:36:56.850Z,97318.06
2022-11-20T18:39:25.064Z,97304.44
2022-11-20T18:42:10.226Z,97314.25
2022-11-20T18:44:55.522Z,97306.38
2022-11-20T18:47:25.662Z,97298.44
2022-11-20T18:49:57.190Z,97291.72
2022-11-20T18:52:26.783Z,97288.97
2022-11-20T18:54:55.452Z,97289.78
2022-11-20T18:57:27.075Z,97280.94
2022-11-20T19:00:06.780Z,97298.34
2022-11-20T19:02:41.522Z,97283.19
2022-11-20T19:05:10.603Z,97297.06
2022-11-20T19:07:38.767Z,97309.78
2022-11-20T19:10:08.438Z,97304.53
2022-11-20T19:12:36.398Z,97300.97
2022-11-20T19:15:06.282Z,97312.16
2022-11-20T19:17:34.205Z,97306.06
2022-11-20T19:20:02.133Z,97299.81
2022-11-20T19:22:29.998Z,97303.91
2022-11-20T19:24:57.952Z,97301.38
2022-11-20T19:27:25.831Z,97298.88
2022-11-20T19:29:57.591Z,97303.63
2022-11-20T19:32:26.848Z,97309.28
2022-11-20T19:34:54.685Z,97308.22
2022-11-20T19:37:22.675Z,97299.03
2022-11-20T19:39:51.412Z,97300.78
2022-11-20T19:42:21.006Z,97306.03
2022-11-20T19:44:50.447Z,97292.84
2022-11-20T19:47:18.860Z,97285.63
2022-11-20T19:49:48.761Z,97277.94
2022-11-20T19:52:16.900Z,97275.31
2022-11-20T19:54:44.991Z,97272.75
2022-11-20T19:57:13.217Z,97274.75
2022-11-20T19:59:42.077Z,97265.59
2022-11-20T20:02:12.624Z,97272.56
2022-11-20T20:04:41.154Z,97269.31
2022-11-20T20:07:10.661Z,97265.13
2022-11-20T20:09:40.407Z,97252.34
2022-11-20T20:12:08.931Z,97251.75
2022-11-20T20:14:40.225Z,97251.75
2022-11-20T20:17:08.139Z,97261.16
2022-11-20T20:19:36.378Z,97261.56
2022-11-20T20:22:04.265Z,97261.41
2022-11-20T20:24:33.583Z,97253.63
2022-11-20T20:27:01.503Z,97259.53
2022-11-20T20:29:29.485Z,97264.31
2022-11-20T20:31:57.349Z,97264.06
2022-11-20T20:34:29.651Z,97256.53
2022-11-20T20:36:57.517Z,97245.03
2022-11-20T20:39:25.548Z,97252.50
2022-11-20T20:41:55.180Z,97252.56
2022-11-20T20:44:40.379Z,97261.56
2022-11-20T20:47:08.366Z,97254.00
2022-11-20T20:49:36.603Z,97255.81
2022-11-20T20:52:04.894Z,97255.16
2022-11-20T20:54:34.548Z,97259.59
2022-11-20T20:57:04.368Z,97255.34
2022-11-20T20:59:32.171Z,97254.09
2022-11-20T21:02:00.211Z,97262.03
2022-11-20T21:04:28.072Z,97259.13
2022-11-20T21:06:55.944Z,97254.34
2022-11-20T21:09:24.079Z,97251.53
2022-11-20T21:11:52.029Z,97259.28
2022-11-20T21:14:21.892Z,97255.25
2022-11-20T21:16:49.984Z,97257.91
2022-11-20T21:19:18.035Z,97255.47
2022-11-20T21:22:00.380Z,97257.16
2022-11-20T21:24:29.124Z,97261.25
2022-11-20T21:26:58.192Z,97264.88
2022-11-20T21:29:29.046Z,97258.97
2022-11-20T21:31:57.458Z,97264.63
2022-11-20T21:34:26.326Z,97264.13
2022-11-20T21:36:54.440Z,97261.63
2022-11-20T21:39:22.961Z,97258.84
2022-11-20T21:41:50.842Z,97263.50
2022-11-20T21:44:34.331Z,97249.78
2022-11-20T21:47:03.699Z,97237.34
2022-11-20T21:49:31.715Z,97238.66
2022-11-20T21:51:59.639Z,97247.22
2022-11-20T21:54:27.601Z,97246.88
2022-11-20T21:56:55.584Z,97245.16
2022-11-20T21:59:23.857Z,97257.59
2022-11-20T22:01:51.794Z,97251.53
2022-11-20T22:04:22.897Z,97254.94
2022-11-20T22:06:50.977Z,97261.41
2022-11-20T22:09:19.081Z,97253.72
2022-11-20T22:11:46.902Z,97264.41
2022-11-20T22:14:23.704Z,97263.84
2022-11-20T22:16:54.632Z,97267.91
2022-11-20T22:19:24.422Z,97259.41
2022-11-20T22:21:52.680Z,97262.56
2022-11-20T22:24:22.551Z,97252.56
2022-11-20T22:26:50.830Z,97258.34
2022-11-20T22:29:20.861Z,97264.75
2022-11-20T22:31:48.812Z,97267.66
2022-11-20T22:34:16.739Z,97272.66
2022-11-20T22:36:46.004Z,97261.16
2022-11-20T22:39:14.177Z,97269.41
2022-11-20T22:41:42.066Z,97272.66
2022-11-20T22:44:10.048Z,97266.50
2022-11-20T22:46:38.717Z,97282.59
2022-11-20T22:49:09.431Z,97286.78
2022-11-20T22:51:39.562Z,97289.22
2022-11-20T22:54:11.551Z,97282.00
2022-11-20T22:56:39.559Z,97281.19
2022-11-20T22:59:07.388Z,97289.56
2022-11-20T23:01:37.630Z,97285.81
2022-11-20T23:04:08.108Z,97280.44
2022-11-20T23:06:36.294Z,97282.69
2022-11-20T23:09:05.549Z,97276.38
2022-11-20T23:11:35.432Z,97272.66
2022-11-20T23:14:05.215Z,97282.53
2022-11-20T23:16:34.710Z,97279.19
2022-11-20T23:19:04.902Z,97286.06
2022-11-20T23:21:33.336Z,97291.41
2022-11-20T23:24:02.015Z,97286.00
2022-11-20T23:26:31.898Z,97288.09
2022-11-20T23:29:02.247Z,97288.97
2022-11-20T23:31:31.931Z,97280.66
2022-11-20T23:34:00.368Z,97288.09
2022-11-20T23:36:28.521Z,97287.34
2022-11-20T23:38:56.438Z,97286.06
2022-11-20T23:41:24.358Z,97293.28
2022-11-20T23:43:52.549Z,97284.44
2022-11-20T23:46:21.870Z,97290.03
2022-11-20T23:48:50.028Z,97286.31
2022-11-20T23:51:18.073Z,97271.09
2022-11-20T23:53:45.895Z,97287.88
2022-11-20T23:56:15.424Z,97281.28
2022-11-20T23:58:44.451Z,97288.59
